»·PEaware :: N351SS KBUR-KLAS

N351SS :: KBUR-KLAS

FLIGHT INFORMATION

Flight Status: Arrived
Operator: Privately registered:
United States
More flights under this callsign
Pilot: Reuben K. (13591)
Aircraft: CESSNA 206 STATIONAIR
(C206)
More flights by this aircraft type
Origin: KBUR Bob Hope-Burbank
United States
Destination: KLAS McCarran Intl
United States
More flights between these airports :: More routes between these airports
Route: +VNY3 DAG CRESO4
File this flight plan on PilotEdge
Remarks: I-5 rating
Altitude:
(Current/Filed)
9,000ft
Speed:
(Current/Filed)
140kts
Departed: 09-Feb-20 05:50 PM
Arrived: 09-Feb-20 07:19 PM
Distance/Time
Traveled:
193nm/1:29
Distance/Time
To Go:
Arrived

Flight Plot

Page will automatically refresh every two minutes.

Flight plan parsing failed; only flown route is shown


Map Options




Map Legend


Flown Route
Filed Route
Departure Airport
Arrival Airport
Navaid (VOR, NDB)
Fix

Horizontal Profiles

Position Reports

Time Latitude Longitude Heading Altitude Ground
Speed
09-Feb-20 17:04 34.210987 -118.358187 306 759ft 0kts
09-Feb-20 17:05 34.200215 -118.358844 258 721ft 0kts
09-Feb-20 17:06 34.200215 -118.358844 258 721ft 0kts
09-Feb-20 17:06 34.200215 -118.358844 258 721ft 0kts
09-Feb-20 17:08 34.200215 -118.358844 258 721ft 0kts
09-Feb-20 17:09 34.200215 -118.358844 258 721ft 0kts
09-Feb-20 17:09 34.200215 -118.358844 258 721ft 0kts
09-Feb-20 17:10 34.200215 -118.358844 258 721ft 0kts
09-Feb-20 17:12 34.200215 -118.358844 258 721ft 0kts
09-Feb-20 17:13 34.200215 -118.358844 258 721ft 0kts
09-Feb-20 17:13 34.200215 -118.358844 258 721ft 0kts
09-Feb-20 17:14 34.200215 -118.358844 258 721ft 0kts
09-Feb-20 17:15 34.200215 -118.358844 258 721ft 0kts
09-Feb-20 17:16 34.200215 -118.358844 258 721ft 0kts
09-Feb-20 17:17 34.200215 -118.358844 258 721ft 0kts
09-Feb-20 17:18 34.200215 -118.358844 258 721ft 0kts
09-Feb-20 17:19 34.200215 -118.358844 258 721ft 0kts
09-Feb-20 17:20 34.200215 -118.358844 258 721ft 0kts
09-Feb-20 17:21 34.200215 -118.358844 258 721ft 0kts
09-Feb-20 17:22 34.200215 -118.358844 258 721ft 0kts
09-Feb-20 17:23 34.200215 -118.358844 258 721ft 0kts
09-Feb-20 17:24 34.200215 -118.358844 258 721ft 0kts
09-Feb-20 17:25 34.200215 -118.358844 258 721ft 0kts
09-Feb-20 17:26 34.200215 -118.358844 258 721ft 0kts
09-Feb-20 17:27 34.200215 -118.358844 258 721ft 0kts
09-Feb-20 17:28 34.200215 -118.358844 258 721ft 0kts
09-Feb-20 17:29 34.200215 -118.358844 258 721ft 0kts
09-Feb-20 17:30 34.200215 -118.358844 258 721ft 0kts
09-Feb-20 17:31 34.200215 -118.358844 258 721ft 0kts
09-Feb-20 17:32 34.200215 -118.358844 258 721ft 0kts
09-Feb-20 17:33 34.200215 -118.358844 258 721ft 0kts
09-Feb-20 17:34 34.200215 -118.358844 258 721ft 0kts
09-Feb-20 17:35 34.200215 -118.358844 258 721ft 0kts
09-Feb-20 17:36 34.200215 -118.358844 258 721ft 0kts
09-Feb-20 17:37 34.200215 -118.358844 258 721ft 0kts
09-Feb-20 17:38 34.200215 -118.358844 258 721ft 0kts
09-Feb-20 17:39 34.200592 -118.359152 340 723ft 8kts
09-Feb-20 17:40 34.202418 -118.359740 37 731ft 5kts
09-Feb-20 17:41 34.202708 -118.359468 66 732ft 0kts
09-Feb-20 17:42 34.202708 -118.359468 66 732ft 0kts
09-Feb-20 17:43 34.203122 -118.359073 349 733ft 5kts
09-Feb-20 17:44 34.205093 -118.359626 347 738ft 11kts
09-Feb-20 17:45 34.208363 -118.360519 349 752ft 9kts
09-Feb-20 17:46 34.209463 -118.360650 54 759ft 0kts
09-Feb-20 17:47 34.209463 -118.360650 54 759ft 0kts
09-Feb-20 17:48 34.209463 -118.360650 54 759ft 0kts
09-Feb-20 17:49 34.197762 -118.356045 165 1170ft 92kts
09-Feb-20 17:50 34.171773 -118.377647 225 1825ft 133kts
09-Feb-20 17:51 34.145190 -118.408663 224 2798ft 131kts
09-Feb-20 17:52 34.118751 -118.440464 225 3398ft 131kts
09-Feb-20 17:53 34.094521 -118.469590 224 3984ft 114kts
09-Feb-20 17:54 34.070416 -118.498547 225 4130ft 133kts
09-Feb-20 17:55 34.073734 -118.530940 349 4332ft 126kts
09-Feb-20 17:56 34.107256 -118.529672 12 4761ft 120kts
09-Feb-20 17:57 34.138571 -118.521545 11 5958ft 114kts
09-Feb-20 17:58 34.170904 -118.513442 11 6830ft 139kts
09-Feb-20 17:59 34.214101 -118.502558 11 6829ft 168kts
09-Feb-20 18:00 34.257160 -118.491841 11 7472ft 151kts
09-Feb-20 18:01 34.298646 -118.481533 11 8058ft 153kts
09-Feb-20 18:02 34.336998 -118.471985 11 8574ft 154kts
09-Feb-20 18:03 34.378007 -118.459987 36 9233ft 150kts
09-Feb-20 18:04 34.406210 -118.422452 51 9887ft 151kts
09-Feb-20 18:05 34.432192 -118.381922 52 10515ft 153kts
09-Feb-20 18:06 34.458243 -118.340795 52 11101ft 156kts
09-Feb-20 18:07 34.486615 -118.295585 52 11055ft 175kts
09-Feb-20 18:08 34.516214 -118.248337 52 11054ft 176kts
09-Feb-20 18:09 34.545928 -118.200834 52 11054ft 176kts
09-Feb-20 18:10 34.575530 -118.153450 52 11054ft 176kts
09-Feb-20 18:11 34.605152 -118.105968 52 11054ft 176kts
09-Feb-20 18:12 34.630764 -118.055801 77 11054ft 176kts
09-Feb-20 18:13 34.638603 -117.997045 81 11054ft 176kts
09-Feb-20 18:14 34.645203 -117.938001 82 11054ft 176kts
09-Feb-20 18:15 34.651673 -117.878764 82 11054ft 176kts
09-Feb-20 18:16 34.657803 -117.822116 82 11053ft 158kts
09-Feb-20 18:17 34.663430 -117.770465 80 11054ft 152kts
09-Feb-20 18:18 34.675075 -117.721444 72 11054ft 151kts
09-Feb-20 18:19 34.687513 -117.672669 72 11054ft 150kts
09-Feb-20 18:20 34.699950 -117.624094 72 11054ft 150kts
09-Feb-20 18:21 34.711932 -117.577255 72 11054ft 150kts
09-Feb-20 18:22 34.724411 -117.528431 72 11058ft 158kts
09-Feb-20 18:23 34.738309 -117.473907 72 11055ft 174kts
09-Feb-20 18:24 34.752767 -117.417022 72 11054ft 176kts
09-Feb-20 18:25 34.767213 -117.360090 72 11054ft 176kts
09-Feb-20 18:26 34.781700 -117.302883 72 11054ft 176kts
09-Feb-20 18:27 34.796124 -117.245801 72 11054ft 176kts
09-Feb-20 18:28 34.810511 -117.188738 72 11054ft 176kts
09-Feb-20 18:29 34.824861 -117.131692 72 11054ft 176kts
09-Feb-20 18:30 34.839244 -117.074392 72 11054ft 176kts
09-Feb-20 18:31 34.853551 -117.017268 72 11054ft 176kts
09-Feb-20 18:32 34.867827 -116.960138 72 11054ft 176kts
09-Feb-20 18:33 34.882122 -116.902810 72 11054ft 176kts
09-Feb-20 18:34 34.896361 -116.845574 72 11054ft 176kts
09-Feb-20 18:35 34.910569 -116.788337 72 11054ft 176kts
09-Feb-20 18:36 34.924789 -116.730926 72 11054ft 176kts
09-Feb-20 18:37 34.938953 -116.673606 72 11030ft 177kts
09-Feb-20 18:38 34.953136 -116.616081 72 11027ft 176kts
09-Feb-20 18:39 34.970686 -116.560428 61 11027ft 176kts
09-Feb-20 18:40 34.993922 -116.507571 61 11027ft 176kts
09-Feb-20 18:41 35.017285 -116.454919 61 11027ft 176kts
09-Feb-20 18:42 35.040638 -116.402267 61 11027ft 176kts
09-Feb-20 18:43 35.064022 -116.349480 61 11027ft 176kts
09-Feb-20 18:44 35.087447 -116.296528 61 11027ft 176kts
09-Feb-20 18:45 35.110762 -116.243730 61 11027ft 176kts
09-Feb-20 18:46 35.134103 -116.190792 61 11027ft 176kts
09-Feb-20 18:47 35.157356 -116.137974 61 11027ft 176kts
09-Feb-20 18:48 35.180576 -116.085149 61 11027ft 176kts
09-Feb-20 18:49 35.203839 -116.032143 61 11027ft 176kts
09-Feb-20 18:50 35.227015 -115.979254 61 11027ft 176kts
09-Feb-20 18:51 35.250247 -115.926151 61 11027ft 176kts
09-Feb-20 18:52 35.273379 -115.873195 61 11027ft 176kts
09-Feb-20 18:53 35.296486 -115.820212 61 11027ft 176kts
09-Feb-20 18:54 35.321220 -115.773606 48 11027ft 176kts
09-Feb-20 18:55 35.353438 -115.730213 47 11027ft 176kts
09-Feb-20 18:56 35.386622 -115.685909 47 11027ft 176kts
09-Feb-20 18:57 35.419801 -115.641601 47 11027ft 176kts
09-Feb-20 18:58 35.453082 -115.597105 47 11027ft 176kts
09-Feb-20 18:59 35.486253 -115.552697 47 11027ft 176kts
09-Feb-20 19:00 35.519439 -115.508223 47 11027ft 176kts
09-Feb-20 19:01 35.553250 -115.462862 47 10771ft 185kts
09-Feb-20 19:02 35.588718 -115.415190 47 10174ft 191kts
09-Feb-20 19:03 35.622491 -115.369755 47 10024ft 162kts
09-Feb-20 19:04 35.651637 -115.330549 47 10026ft 151kts
09-Feb-20 19:05 35.685282 -115.302799 11 9876ft 157kts
09-Feb-20 19:06 35.729637 -115.291651 11 9380ft 165kts
09-Feb-20 19:07 35.774909 -115.280282 11 8831ft 168kts
09-Feb-20 19:08 35.820849 -115.268727 11 8214ft 169kts
09-Feb-20 19:09 35.862864 -115.258122 11 7454ft 136kts
09-Feb-20 19:11 35.897399 -115.249402 11 7023ft 112kts
09-Feb-20 19:12 35.925994 -115.242195 11 7026ft 101kts
09-Feb-20 19:13 35.952095 -115.235126 15 6832ft 86kts
09-Feb-20 19:14 35.976809 -115.223643 20 5910ft 98kts
09-Feb-20 19:15 36.001302 -115.211512 21 5224ft 89kts
09-Feb-20 19:16 36.024579 -115.198803 22 4429ft 101kts
09-Feb-20 19:17 36.050732 -115.184153 27 3236ft 104kts
09-Feb-20 19:18 36.076020 -115.170012 25 2210ft 88kts
09-Feb-20 19:19 36.086356 -115.164106 22 2138ft 24kts
09-Feb-20 19:20 36.089390 -115.163497 290 2128ft 0kts
09-Feb-20 19:21 36.088476 -115.165231 208 2137ft 21kts
09-Feb-20 19:22 36.082116 -115.170126 199 2166ft 15kts
09-Feb-20 19:23 36.082039 -115.170289 11 2166ft 0kts
09-Feb-20 19:24 36.082039 -115.170289 11 2166ft 0kts
09-Feb-20 19:25 36.082039 -115.170289 11 2166ft 0kts
09-Feb-20 19:26 36.082039 -115.170289 11 2166ft 0kts
09-Feb-20 19:27 36.082039 -115.170289 11 2166ft 0kts
09-Feb-20 19:28 36.082039 -115.170289 11 2166ft 0kts
09-Feb-20 19:29 36.082039 -115.170289 11 2166ft 0kts
09-Feb-20 19:30 36.082039 -115.170289 11 2166ft 0kts
09-Feb-20 19:31 36.082039 -115.170289 11 2166ft 0kts
09-Feb-20 19:31 36.082039 -115.170289 11 2166ft 0kts
09-Feb-20 19:33 36.082039 -115.170289 11 2166ft 0kts

Navigation Log

Ident Type
Flight plan parsing failed, navigation log unavailable